Time;durP1;ratioP1;P1;durP2;ratioP2;P2;SDS_P1;SDS_P2;PMS_P1;PMS_P2;Temp;Humidity;BMP_temperature;BMP_pressure;BME280_temperature;BME280_humidity;BME280_pressure;Samples;Min_cycle;Max_cycle;Signal;HPM_P1;HPM_P2
2021/03/12 00:01:06;;;;;;;9.65;2.13;;;;;;;10.95;54.26;99446.97;4938318;28;96833;-83
2021/03/12 00:03:35;;;;;;;3.55;1.63;;;;;;;10.97;54.45;99457.44;4940773;28;96648;-85
2021/03/12 00:06:04;;;;;;;4.45;1.42;;;;;;;11.42;53.20;99460.06;4939616;28;101296;-83
2021/03/12 00:08:36;;;;;;;3.13;1.40;;;;;;;10.90;54.76;99471.94;4943894;28;98774;-83
2021/03/12 00:11:03;;;;;;;5.30;2.13;;;;;;;11.10;54.38;99469.88;4945218;28;96580;-82
2021/03/12 00:13:29;;;;;;;6.30;2.13;;;;;;;11.32;53.62;99473.91;4936726;28;96769;-84
2021/03/12 00:15:56;;;;;;;6.90;1.70;;;;;;;11.70;52.66;99476.94;4939753;28;97256;-82
2021/03/12 00:18:26;;;;;;;6.03;1.60;;;;;;;11.66;52.60;99491.31;4936855;28;100759;-83
2021/03/12 00:20:53;;;;;;;3.55;1.52;;;;;;;11.04;54.02;99493.16;4942792;28;96831;-84
2021/03/12 00:23:19;;;;;;;6.40;1.40;;;;;;;11.53;52.92;99488.53;4943905;28;96978;-83
2021/03/12 00:25:46;;;;;;;;;;;;;;;11.74;52.17;99494.38;4933484;28;97915;-83
2021/03/12 00:28:13;;;;;;;;;;;;;;;11.60;52.78;99500.47;4943623;28;99260;-83
2021/03/12 00:30:40;;;;;;;3.73;1.77;;;;;;;11.48;53.09;99491.47;4944918;28;96972;-83
2021/03/12 00:35:32;;;;;;;3.88;1.50;;;;;;;11.35;53.03;99501.06;4988931;22;125266;-85
2021/03/12 00:38:00;;;;;;;5.78;2.15;;;;;;;11.68;52.53;99513.25;4972464;28;97420;-83
2021/03/12 00:40:29;;;;;;;7.97;1.90;;;;;;;11.65;52.36;99519.56;4970191;28;96796;-84
2021/03/12 00:42:57;;;;;;;13.98;2.15;;;;;;;11.14;53.81;99518.16;4974762;28;96701;-84
2021/03/12 00:45:24;;;;;;;6.85;1.80;;;;;;;11.21;53.51;99513.38;4970662;28;100745;-84
2021/03/12 00:47:50;;;;;;;10.55;1.77;;;;;;;11.51;52.82;99517.72;4975252;28;98109;-84
2021/03/12 00:50:20;;;;;;;;;;;;;;;11.43;52.76;99519.94;4972165;28;96514;-84
2021/03/12 00:52:46;;;;;;;7.95;2.05;;;;;;;11.72;51.94;99527.97;4974153;28;96730;-85
2021/03/12 00:55:14;;;;;;;;;;;;;;;11.23;53.16;99528.19;4968828;28;97721;-84
2021/03/12 00:57:40;;;;;;;6.57;1.65;;;;;;;11.62;52.27;99526.84;4967993;28;97252;-84
2021/03/12 01:00:06;;;;;;;;;;;;;;;11.58;52.41;99524.34;4970358;28;96616;-84
2021/03/12 01:02:32;;;;;;;8.27;1.60;;;;;;;11.83;51.52;99529.06;4972406;28;96627;-84
2021/03/12 01:04:58;;;;;;;;;;;;;;;11.75;51.94;99530.50;4973689;28;100384;-84
2021/03/12 01:07:24;;;;;;;9.23;1.65;;;;;;;11.82;51.43;99537.09;4966625;28;100267;-83
2021/03/12 01:09:50;;;;;;;;;;;;;;;11.40;52.85;99529.88;4969597;28;97544;-83
2021/03/12 01:12:26;;;;;;;4.45;1.50;;;;;;;11.13;53.47;99524.38;5389963;22;100018;-83
2021/03/12 01:14:52;;;;;;;5.67;1.67;;;;;;;10.85;53.73;99522.44;5029639;28;99436;-83
2021/03/12 01:17:18;;;;;;;7.03;1.73;;;;;;;10.92;53.99;99515.00;5034136;28;97777;-85
2021/03/12 01:19:44;;;;;;;;;;;;;;;10.84;53.95;99517.22;5012044;28;96338;-85
2021/03/12 01:22:10;;;;;;;6.45;1.50;;;;;;;10.93;53.75;99516.72;5008772;28;96915;-84
2021/03/12 01:24:36;;;;;;;2.78;1.08;;;;;;;10.88;53.92;99521.41;5016639;28;99793;-84
2021/03/12 01:27:02;;;;;;;;;;;;;;;11.08;53.15;99519.34;5020874;28;98005;-84
2021/03/12 01:29:31;;;;;;;4.25;1.30;;;;;;;10.77;53.93;99533.41;5004178;28;96827;-85
2021/03/12 01:31:58;;;;;;;4.43;1.17;;;;;;;10.76;54.17;99529.06;5014959;28;96829;-85
2021/03/12 01:34:25;;;;;;;2.63;1.10;;;;;;;10.41;55.20;99535.44;5026100;28;99301;-84
2021/03/12 01:36:51;;;;;;;2.13;0.90;;;;;;;10.61;54.73;99523.78;5017372;28;98611;-84
2021/03/12 01:39:17;;;;;;;3.53;0.90;;;;;;;10.78;54.02;99532.50;5004408;28;96780;-83
2021/03/12 01:41:43;;;;;;;3.15;1.10;;;;;;;10.91;54.02;99529.16;5009866;28;96872;-82
2021/03/12 01:44:09;;;;;;;;;;;;;;;10.98;53.62;99531.38;5005389;28;101941;-85
2021/03/12 01:46:35;;;;;;;5.70;1.60;;;;;;;10.62;54.45;99536.94;5020817;28;97979;-85
2021/03/12 01:49:02;;;;;;;3.65;1.15;;;;;;;11.30;52.83;99544.56;5008950;28;96959;-84
2021/03/12 01:51:28;;;;;;;6.35;1.58;;;;;;;11.13;53.50;99543.72;5008998;28;96914;-84
2021/03/12 01:53:54;;;;;;;6.15;1.05;;;;;;;11.21;53.07;99545.09;5002497;28;98985;-84
2021/03/12 01:56:21;;;;;;;3.13;1.58;;;;;;;11.27;53.46;99553.53;5013359;28;97885;-83
2021/03/12 01:58:48;;;;;;;4.22;1.48;;;;;;;11.18;53.63;99568.13;5021732;28;96390;-84
2021/03/12 02:01:15;;;;;;;8.85;1.75;;;;;;;10.59;55.11;99550.28;5023471;28;97142;-82
2021/03/12 02:03:42;;;;;;;6.50;1.90;;;;;;;11.08;54.56;99550.22;5000032;28;97578;-85
2021/03/12 02:06:08;;;;;;;5.05;1.52;;;;;;;11.15;54.32;99570.09;5005922;28;97810;-84
2021/03/12 02:08:35;;;;;;;4.10;1.67;;;;;;;10.62;55.50;99563.34;5008538;28;97211;-83
2021/03/12 02:11:01;;;;;;;3.20;1.35;;;;;;;10.20;56.51;99560.34;5021917;28;96965;-83
2021/03/12 02:13:33;;;;;;;;;;;;;;;10.65;55.64;99564.94;5006027;28;99506;-84
2021/03/12 02:16:07;;;;;;;6.07;1.40;;;;;;;10.37;55.86;99569.06;5001031;28;98122;-84
2021/03/12 02:18:38;;;;;;;3.08;1.40;;;;;;;10.39;56.53;99569.84;5007693;28;96690;-84
2021/03/12 02:21:14;;;;;;;2.72;1.40;;;;;;;10.31;56.64;99563.25;5010404;28;96958;-84
2021/03/12 02:24:00;;;;;;;3.63;1.58;;;;;;;10.48;56.49;99568.50;5009047;28;98977;-83
2021/03/12 02:27:01;;;;;;;4.95;1.83;;;;;;;10.54;56.23;99568.19;5000207;28;98960;-84
2021/03/12 02:29:29;;;;;;;6.00;1.70;;;;;;;10.42;56.97;99570.63;4999886;28;96793;-85
2021/03/12 02:32:00;;;;;;;4.55;1.52;;;;;;;10.45;56.91;99568.66;4993046;28;98572;-83
2021/03/12 02:34:29;;;;;;;3.25;1.50;;;;;;;10.14;57.63;99565.91;5015258;28;99035;-84
2021/03/12 02:36:58;;;;;;;5.20;1.70;;;;;;;10.73;56.06;99560.09;4998748;28;98320;-84
2021/03/12 02:39:26;;;;;;;6.03;1.42;;;;;;;10.51;56.52;99573.63;5001258;28;96790;-84
2021/03/12 02:41:55;;;;;;;5.10;1.48;;;;;;;10.24;57.46;99572.47;5014293;28;96930;-84
2021/03/12 02:44:24;;;;;;;5.95;1.65;;;;;;;10.63;56.11;99572.13;5000757;28;100301;-83
2021/03/12 02:46:54;;;;;;;3.65;1.67;;;;;;;10.25;56.34;99584.69;4985745;28;98965;-83
2021/03/12 02:49:21;;;;;;;6.28;1.67;;;;;;;10.18;57.01;99572.75;5006783;28;96919;-84
2021/03/12 02:51:49;;;;;;;4.15;1.33;;;;;;;10.11;57.07;99585.38;5007742;28;96734;-84
2021/03/12 02:54:17;;;;;;;4.72;1.55;;;;;;;10.34;56.56;99589.50;5002606;28;99294;-83
2021/03/12 02:56:43;;;;;;;7.45;2.05;;;;;;;10.08;56.87;99592.63;5013271;28;98979;-84
2021/03/12 02:59:11;;;;;;;5.75;1.70;;;;;;;9.78;57.27;99606.44;5003446;28;98585;-83
2021/03/12 03:01:38;;;;;;;4.22;1.35;;;;;;;9.96;56.98;99600.25;5000425;28;98401;-84
2021/03/12 03:04:05;;;;;;;4.25;1.35;;;;;;;10.25;56.48;99604.03;5003977;28;97679;-85
2021/03/12 03:06:32;;;;;;;7.35;1.50;;;;;;;10.06;56.94;99605.03;5003537;28;97767;-84
2021/03/12 03:08:58;;;;;;;5.80;1.58;;;;;;;10.19;56.23;99611.44;5014450;28;97161;-84
2021/03/12 03:11:26;;;;;;;4.93;1.35;;;;;;;10.27;55.73;99615.38;4998703;28;97419;-85
2021/03/12 03:13:53;;;;;;;2.08;1.20;;;;;;;9.91;57.10;99618.06;5008816;28;98535;-83
2021/03/12 03:16:24;;;;;;;2.90;1.10;;;;;;;10.13;56.50;99622.28;4999605;28;99641;-83
2021/03/12 03:18:53;;;;;;;3.92;1.05;;;;;;;9.63;56.75;99627.47;5003419;28;96713;-85
2021/03/12 03:21:21;;;;;;;2.95;1.40;;;;;;;9.77;56.56;99631.13;5011660;28;96680;-86
2021/03/12 03:23:48;;;;;;;5.72;1.20;;;;;;;9.93;55.72;99634.69;5000267;28;100482;-85
2021/03/12 03:26:15;;;;;;;6.72;1.05;;;;;;;9.91;55.11;99641.81;5002390;28;96729;-86
2021/03/12 03:28:41;;;;;;;4.80;1.08;;;;;;;9.89;55.31;99635.78;5012055;28;97531;-85
2021/03/12 03:31:07;;;;;;;7.97;1.50;;;;;;;9.94;55.39;99641.69;5001314;28;98739;-85
2021/03/12 03:33:33;;;;;;;4.20;0.73;;;;;;;10.10;54.50;99651.47;5004255;28;97786;-86
2021/03/12 03:36:01;;;;;;;7.57;0.95;;;;;;;10.22;54.17;99648.25;5019344;28;98938;-85
2021/03/12 03:38:28;;;;;;;5.88;1.00;;;;;;;10.03;54.47;99653.56;5003310;28;96776;-84
2021/03/12 03:40:54;;;;;;;4.07;0.90;;;;;;;10.35;53.59;99657.25;5013261;28;96665;-85
2021/03/12 03:43:24;;;;;;;3.70;0.80;;;;;;;10.08;53.87;99655.97;5007070;28;99302;-85
2021/03/12 03:45:52;;;;;;;1.63;0.55;;;;;;;10.11;53.65;99655.84;5004536;28;98878;-84
2021/03/12 03:48:21;;;;;;;2.33;0.85;;;;;;;10.45;52.97;99654.97;5001508;28;96724;-84
2021/03/12 03:50:47;;;;;;;4.20;0.88;;;;;;;10.43;52.72;99655.06;5009174;28;96915;-83
2021/03/12 03:53:15;;;;;;;4.03;0.90;;;;;;;9.53;54.73;99659.53;5003605;28;101197;-83
2021/03/12 03:55:42;;;;;;;2.83;0.70;;;;;;;9.70;55.16;99655.25;5003004;28;97922;-83
2021/03/12 03:58:08;;;;;;;2.80;0.40;;;;;;;9.66;55.20;99661.59;5004505;28;96524;-86
2021/03/12 04:00:35;;;;;;;5.95;0.80;;;;;;;9.77;54.78;99664.56;5000853;28;97182;-84
2021/03/12 04:03:02;;;;;;;2.08;0.65;;;;;;;9.93;54.58;99665.50;5003207;28;99173;-84
2021/03/12 04:05:28;;;;;;;2.47;0.70;;;;;;;9.91;54.51;99675.31;5011520;28;97545;-84
2021/03/12 04:07:55;;;;;;;3.20;0.60;;;;;;;10.02;54.43;99672.13;5007849;28;97246;-83
2021/03/12 04:10:23;;;;;;;2.70;0.90;;;;;;;10.38;53.38;99678.19;5007469;28;96825;-83
2021/03/12 04:12:50;;;;;;;6.75;0.80;;;;;;;10.28;53.80;99685.75;5016305;28;97729;-84
2021/03/12 04:15:17;;;;;;;9.52;1.15;;;;;;;9.54;55.64;99689.41;5008991;28;97834;-84
2021/03/12 04:17:44;;;;;;;4.88;1.08;;;;;;;10.02;54.32;99701.16;5019349;28;96797;-84
2021/03/12 04:20:13;;;;;;;7.28;0.82;;;;;;;9.91;54.54;99702.50;5009037;28;97141;-84
2021/03/12 04:22:41;;;;;;;3.50;0.90;;;;;;;10.20;54.06;99709.03;5007477;28;99487;-84
2021/03/12 04:25:08;;;;;;;4.80;0.90;;;;;;;10.10;53.83;99694.56;5007576;28;97993;-84
2021/03/12 04:27:36;;;;;;;5.93;0.95;;;;;;;10.15;54.09;99712.81;5013234;28;98752;-83
2021/03/12 04:30:05;;;;;;;6.78;1.15;;;;;;;10.22;53.64;99716.88;5002972;28;96759;-84
2021/03/12 04:32:31;;;;;;;1.52;0.60;;;;;;;9.76;54.73;99718.25;5013026;28;101105;-84
2021/03/12 04:35:02;;;;;;;2.58;0.90;;;;;;;9.76;54.96;99728.81;5003028;28;97653;-83
2021/03/12 04:37:29;;;;;;;4.18;0.90;;;;;;;9.68;55.45;99736.22;5011127;28;97792;-82
2021/03/12 04:39:55;;;;;;;2.42;0.47;;;;;;;9.67;55.17;99737.16;5018888;28;97144;-83
2021/03/12 04:42:22;;;;;;;4.30;0.70;;;;;;;9.63;55.67;99743.50;5008880;28;98962;-81
2021/03/12 04:44:49;;;;;;;5.68;0.88;;;;;;;9.50;55.96;99752.00;5011096;28;98919;-82
2021/03/12 04:47:15;;;;;;;8.05;0.75;;;;;;;9.70;55.59;99755.50;5009022;28;97700;-83
2021/03/12 04:49:44;;;;;;;2.30;0.82;;;;;;;9.18;56.63;99745.59;5019099;28;96830;-81
2021/03/12 04:52:11;;;;;;;5.85;1.40;;;;;;;9.63;56.30;99754.91;5021695;28;100407;-83
2021/03/12 04:54:38;;;;;;;5.40;0.90;;;;;;;9.69;55.58;99766.97;5019031;28;99821;-83
2021/03/12 04:57:05;;;;;;;3.70;1.10;;;;;;;9.64;56.16;99771.59;5022597;28;96818;-82
2021/03/12 04:59:31;;;;;;;8.23;0.93;;;;;;;9.66;55.90;99770.59;5002268;28;96762;-82
2021/03/12 05:01:58;;;;;;;7.30;1.05;;;;;;;9.66;55.85;99764.44;5011627;28;98865;-83
2021/03/12 05:04:24;;;;;;;6.68;1.05;;;;;;;9.91;55.39;99770.31;5008773;28;97922;-82
2021/03/12 05:06:51;;;;;;;6.10;1.17;;;;;;;9.72;55.89;99772.94;5004747;28;96657;-82
2021/03/12 05:09:17;;;;;;;6.28;1.17;;;;;;;9.81;55.54;99779.56;5006515;28;96609;-85
2021/03/12 05:11:43;;;;;;;;;;;;;;;10.08;54.89;99780.03;5015497;28;96802;-83
2021/03/12 05:14:34;;;;;;;3.78;1.33;;;;;;;9.83;55.22;99778.56;5026254;28;98982;-86
2021/03/12 05:17:03;;;;;;;7.80;1.30;;;;;;;9.77;55.38;99783.28;5011645;28;96465;-85
2021/03/12 05:19:30;;;;;;;3.45;1.30;;;;;;;9.71;55.84;99800.28;5033257;28;96578;-85
2021/03/12 05:21:56;;;;;;;6.68;1.85;;;;;;;9.87;55.40;99795.09;5009151;28;98291;-85
2021/03/12 05:24:23;;;;;;;3.90;1.50;;;;;;;9.88;56.46;99783.63;5023446;28;99539;-86
2021/03/12 05:26:50;;;;;;;5.28;1.67;;;;;;;9.16;58.75;99802.78;5015021;28;97563;-86
2021/03/12 05:29:20;;;;;;;5.72;1.63;;;;;;;9.43;57.95;99805.09;5018359;28;96888;-86
2021/03/12 05:31:47;;;;;;;3.53;1.80;;;;;;;9.37;58.47;99813.28;5017129;28;100554;-86
2021/03/12 05:34:14;;;;;;;5.55;2.25;;;;;;;9.95;56.95;99820.22;5019070;28;99285;-83
2021/03/12 05:36:54;;;;;;;10.65;2.25;;;;;;;9.93;57.38;99814.13;5015961;28;96880;-86
2021/03/12 05:39:22;;;;;;;6.10;2.10;;;;;;;9.54;58.41;99822.13;5009530;28;97270;-86
2021/03/12 05:41:49;;;;;;;9.02;2.20;;;;;;;9.99;58.19;99821.75;5027616;28;97029;-83
2021/03/12 05:44:47;;;;;;;9.23;2.30;;;;;;;9.98;58.03;99816.56;5026361;28;98632;-85
2021/03/12 06:01:52;;;;;;;4.25;2.33;;;;;;;9.38;58.80;99844.00;5018625;28;96679;-84
2021/03/12 06:04:22;;;;;;;6.20;2.33;;;;;;;9.75;58.04;99859.00;5012675;28;97748;-85
2021/03/12 06:13:04;;;;;;;6.13;2.13;;;;;;;9.83;57.09;99884.13;5015864;28;97496;-83
2021/03/12 06:15:47;;;;;;;4.53;2.45;;;;;;;9.47;57.43;99884.00;5022588;28;97815;-83
2021/03/12 06:18:16;;;;;;;5.85;2.35;;;;;;;9.91;56.55;99892.50;5007193;28;97978;-82
2021/03/12 06:20:44;;;;;;;5.97;2.20;;;;;;;9.29;58.73;99902.41;5012919;28;96721;-83
2021/03/12 06:23:11;;;;;;;6.10;2.30;;;;;;;9.50;57.46;99909.38;5013748;28;96807;-83
2021/03/12 06:25:42;;;;;;;3.88;2.10;;;;;;;9.73;56.62;99908.34;5014438;28;100087;-81
2021/03/12 06:28:26;;;;;;;3.92;2.38;;;;;;;9.60;56.71;99916.81;5016093;28;97789;-83
2021/03/12 06:30:52;;;;;;;7.55;2.72;;;;;;;9.86;56.50;99920.91;5012148;28;96715;-87
2021/03/12 06:33:29;;;;;;;8.45;2.92;;;;;;;10.08;55.74;99920.78;5002951;28;95998;-86
2021/03/12 06:35:57;;;;;;;6.28;3.00;;;;;;;9.69;56.28;99931.38;5009999;28;96926;-84
2021/03/12 06:38:26;;;;;;;6.40;3.35;;;;;;;9.18;58.33;99932.72;5008110;28;98136;-82
2021/03/12 06:40:53;;;;;;;6.20;3.40;;;;;;;9.59;58.00;99943.25;4993563;28;96620;-83
2021/03/12 06:43:38;;;;;;;11.05;4.30;;;;;;;9.91;57.39;99947.94;5012272;28;96717;-81
2021/03/12 06:46:06;;;;;;;4.72;3.42;;;;;;;9.69;58.08;99954.25;5010837;28;97893;-83
2021/03/12 06:48:39;;;;;;;5.78;4.28;;;;;;;9.79;57.52;99940.56;5022337;28;99401;-84
2021/03/12 06:51:16;;;;;;;8.13;4.78;;;;;;;9.49;58.67;99958.63;5006989;28;97152;-81
2021/03/12 06:54:19;;;;;;;11.90;3.80;;;;;;;9.07;60.01;99969.19;5027260;28;96897;-84
2021/03/12 07:00:45;;;;;;;5.05;3.58;;;;;;;9.58;58.02;99963.47;5013740;28;96547;-87
2021/03/12 07:03:37;;;;;;;7.13;3.88;;;;;;;9.52;57.71;99973.44;5013253;28;96534;-85
2021/03/12 07:09:32;;;;;;;7.20;3.95;;;;;;;10.15;56.20;99977.66;5025792;28;96749;-85
2021/03/12 07:23:49;;;;;;;4.75;3.97;;;;;;;10.03;56.19;100006.38;5015921;28;99191;-84
2021/03/12 07:26:22;;;;;;;5.55;4.05;;;;;;;10.31;55.12;100001.56;5017237;28;96021;-86
2021/03/12 07:28:58;;;;;;;7.88;3.80;;;;;;;9.93;56.32;100009.44;5015250;28;96759;-83
2021/03/12 07:31:31;;;;;;;7.88;3.80;;;;;;;10.09;55.83;100014.88;5008116;28;98779;-85
2021/03/12 07:34:06;;;;;;;8.20;4.13;;;;;;;10.59;54.17;100014.38;5009812;28;100004;-86
2021/03/12 07:36:39;;;;;;;9.13;3.88;;;;;;;11.06;53.10;100028.81;5014943;28;97871;-86
2021/03/12 07:39:07;;;;;;;7.30;4.35;;;;;;;10.61;53.94;100026.59;5015241;28;96713;-86
2021/03/12 07:41:34;;;;;;;12.80;4.10;;;;;;;10.66;54.34;100014.00;5001093;28;97691;-85
2021/03/12 07:44:00;;;;;;;11.68;4.05;;;;;;;10.85;53.36;100016.63;5021312;28;100245;-84
2021/03/12 07:46:27;;;;;;;9.95;4.10;;;;;;;10.87;52.79;100032.41;5020517;28;96123;-85
2021/03/12 07:48:53;;;;;;;6.70;3.78;;;;;;;10.53;54.09;100034.00;5021630;28;96396;-81
2021/03/12 07:51:22;;;;;;;8.60;4.68;;;;;;;10.98;52.85;100045.97;5024008;28;98843;-84
2021/03/12 07:53:56;;;;;;;7.65;3.58;;;;;;;10.29;53.91;100040.44;5022996;28;100697;-85
2021/03/12 07:57:00;;;;;;;6.03;3.60;;;;;;;9.57;56.83;100050.63;5027224;28;97628;-83
2021/03/12 07:59:58;;;;;;;7.97;4.88;;;;;;;10.21;54.93;100050.47;5006715;28;96031;-82
2021/03/12 08:02:48;;;;;;;7.97;4.20;;;;;;;9.99;54.56;100053.16;5016727;28;98450;-85
2021/03/12 08:05:32;;;;;;;7.90;3.58;;;;;;;9.75;55.38;100060.38;5017405;28;98300;-84
2021/03/12 08:07:59;;;;;;;6.13;3.60;;;;;;;10.30;54.59;100071.19;5016059;28;96931;-84
2021/03/12 08:10:29;;;;;;;11.52;3.22;;;;;;;10.28;53.47;100065.97;5006706;28;97901;-87
2021/03/12 08:12:57;;;;;;;5.60;2.75;;;;;;;10.44;53.12;100073.19;5150846;22;100036;-85
2021/03/12 08:18:25;;;;;;;4.78;3.50;;;;;;;11.11;51.45;100086.75;5032647;28;96797;-84
2021/03/12 08:24:55;;;;;;;11.15;3.65;;;;;;;11.02;51.32;100079.28;5032531;27;98543;-87
2021/03/12 08:27:46;;;;;;;8.50;3.53;;;;;;;11.32;50.54;100079.56;4998101;27;97928;-85
2021/03/12 08:31:08;;;;;;;12.63;3.67;;;;;;;11.23;49.77;100094.09;5022766;28;96581;-87
2021/03/12 08:33:41;;;;;;;5.97;3.30;;;;;;;11.22;49.97;100083.59;5032004;28;96475;-86
2021/03/12 08:36:08;;;;;;;9.15;3.58;;;;;;;11.40;49.50;100102.06;5024337;28;98528;-87
2021/03/12 08:38:40;;;;;;;8.07;3.78;;;;;;;11.69;49.05;100100.63;5024800;28;98221;-88
2021/03/12 08:41:42;;;;;;;8.30;3.65;;;;;;;11.09;50.04;100104.50;5024944;28;97025;-87
2021/03/12 08:46:55;;;;;;;7.38;4.20;;;;;;;11.18;50.46;100102.25;5026249;28;100058;-86
2021/03/12 08:49:23;;;;;;;6.15;3.63;;;;;;;11.31;49.87;100096.38;5027803;28;98433;-84
2021/03/12 08:51:49;;;;;;;8.60;3.85;;;;;;;10.80;50.44;100103.22;5026716;28;96904;-83
2021/03/12 08:56:59;;;;;;;9.30;3.65;;;;;;;10.96;50.01;100111.28;5020318;28;98888;-85
2021/03/12 08:59:38;;;;;;;7.80;3.08;;;;;;;11.07;49.85;100109.84;5030156;28;100157;-85
2021/03/12 09:02:07;;;;;;;10.52;3.67;;;;;;;10.84;50.01;100115.34;5030341;28;96741;-83
2021/03/12 09:04:34;;;;;;;6.78;3.70;;;;;;;11.31;49.06;100113.09;5035136;28;96707;-83
2021/03/12 09:07:02;;;;;;;8.70;3.67;;;;;;;11.36;49.25;100126.09;5031039;27;100683;-84
2021/03/12 09:09:28;;;;;;;7.07;3.33;;;;;;;11.03;49.74;100115.34;5038376;27;98125;-87
2021/03/12 09:11:54;;;;;;;;;;;;;;;11.28;49.08;100113.25;5039583;28;96750;-84
2021/03/12 09:14:33;;;;;;;7.68;2.85;;;;;;;11.78;48.32;100108.13;5033764;28;97083;-88
2021/03/12 09:17:05;;;;;;;6.90;3.05;;;;;;;11.65;48.66;100116.72;5022792;28;98644;-86
2021/03/12 09:19:35;;;;;;;11.45;3.53;;;;;;;11.83;48.46;100118.47;5020743;28;101375;-87
2021/03/12 09:22:33;;;;;;;16.15;4.03;;;;;;;11.83;47.09;100116.69;5022690;28;96883;-86
2021/03/12 09:25:05;;;;;;;9.63;3.83;;;;;;;11.74;47.45;100125.13;5021598;28;97067;-87
2021/03/12 09:27:32;;;;;;;7.40;3.75;;;;;;;12.02;46.95;100132.50;5025661;28;96799;-85
2021/03/12 09:29:59;;;;;;;14.18;3.88;;;;;;;11.76;47.08;100130.31;5024464;28;101628;-87
2021/03/12 09:35:41;;;;;;;11.50;3.63;;;;;;;12.28;46.14;100142.63;5029944;27;97041;-86
2021/03/12 09:38:13;;;;;;;8.85;3.45;;;;;;;12.67;44.59;100126.41;5023205;28;101160;-86
2021/03/12 09:41:15;;;;;;;11.70;4.07;;;;;;;11.89;45.96;100140.22;5034601;27;97840;-87
2021/03/12 09:46:47;;;;;;;6.97;3.00;;;;;;;12.85;44.22;100150.22;5036718;27;97206;-86
2021/03/12 09:49:17;;;;;;;8.10;3.72;;;;;;;13.03;43.77;100131.50;5039645;27;97011;-86
2021/03/12 09:51:45;;;;;;;6.93;2.70;;;;;;;12.87;43.59;100141.22;5031702;27;98112;-84
2021/03/12 09:57:27;;;;;;;9.80;3.25;;;;;;;12.28;44.24;100152.34;4944810;27;96918;-87
2021/03/12 10:00:16;;;;;;;9.32;3.20;;;;;;;12.82;43.07;100145.94;5026910;27;100354;-85
2021/03/12 10:02:55;;;;;;;16.42;6.28;;;;;;;12.72;43.56;100150.88;5015796;28;97944;-83
2021/03/12 10:05:25;;;;;;;12.90;3.67;;;;;;;13.33;41.49;100163.44;5032131;27;96815;-85
2021/03/12 10:07:53;;;;;;;10.75;3.17;;;;;;;13.77;40.76;100147.66;5021629;28;97787;-85
2021/03/12 10:10:23;;;;;;;12.48;3.45;;;;;;;13.21;40.98;100157.97;5024497;28;101208;-85
2021/03/12 10:12:52;;;;;;;11.43;3.00;;;;;;;12.70;41.65;100158.06;5021536;28;99737;-86
2021/03/12 10:18:03;;;;;;;7.53;2.00;;;;;;;11.77;43.13;100164.66;5034036;28;96860;-88
2021/03/12 10:20:34;;;;;;;8.10;2.50;;;;;;;11.87;42.88;100154.47;5036200;27;99409;-86
2021/03/12 10:23:14;;;;;;;9.30;2.38;;;;;;;12.12;42.78;100177.94;5029056;28;97919;-84
2021/03/12 10:25:44;;;;;;;6.05;2.22;;;;;;;12.04;42.13;100173.00;5035881;27;95946;-84
2021/03/12 10:28:12;;;;;;;26.23;10.90;;;;;;;12.18;41.53;100181.13;5034863;28;96996;-87
2021/03/12 10:30:41;;;;;;;6.95;2.15;;;;;;;12.13;41.07;100175.22;5023218;28;101538;-87
2021/03/12 10:33:14;;;;;;;7.45;2.35;;;;;;;11.84;41.94;100170.50;5024491;28;97539;-84
2021/03/12 10:35:44;;;;;;;9.52;2.30;;;;;;;13.02;40.31;100171.38;5023099;28;97071;-86
2021/03/12 10:38:18;;;;;;;12.20;2.40;;;;;;;12.88;40.93;100174.75;5024875;28;96824;-86
2021/03/12 10:40:47;;;;;;;13.75;2.13;;;;;;;12.97;39.74;100179.59;5021964;28;100325;-87
2021/03/12 10:43:16;;;;;;;8.45;2.50;;;;;;;12.70;40.81;100176.63;5016327;28;98177;-87
2021/03/12 10:45:45;;;;;;;20.77;9.63;;;;;;;13.69;39.63;100183.56;5023060;28;96858;-85
2021/03/12 10:48:12;;;;;;;63.50;16.90;;;;;;;14.43;38.50;100171.22;5024548;28;98478;-86
2021/03/12 10:50:47;;;;;;;8.82;2.15;;;;;;;14.34;37.92;100171.72;5030306;28;100746;-85
2021/03/12 10:53:14;;;;;;;8.32;2.00;;;;;;;12.98;39.32;100178.66;5023723;28;99970;-84
2021/03/12 10:56:01;;;;;;;8.48;2.15;;;;;;;13.18;39.22;100192.66;5021282;28;97270;-84
2021/03/12 10:58:32;;;;;;;8.57;2.50;;;;;;;13.14;38.78;100199.91;5022290;28;96877;-84
2021/03/12 11:01:21;;;;;;;;;;;;;;;;;;;;;
2021/03/12 11:04:03;;;;;;;9.05;2.05;;;;;;;13.23;38.20;100194.09;5027955;28;128086;-87
2021/03/12 11:09:26;;;;;;;6.57;2.45;;;;;;;14.05;37.38;100202.66;5018223;28;96989;-84
2021/03/12 11:11:56;;;;;;;7.78;2.35;;;;;;;14.26;37.07;100187.28;5027067;27;98900;-86
2021/03/12 11:17:46;;;;;;;6.93;2.00;;;;;;;14.17;36.32;100198.47;5036877;28;96774;-86
2021/03/12 11:20:29;;;;;;;7.75;2.42;;;;;;;13.54;36.71;100198.56;5029548;27;96838;-84
2021/03/12 11:22:56;;;;;;;8.65;1.95;;;;;;;13.90;36.02;100191.16;5026814;28;98722;-86
2021/03/12 11:25:22;;;;;;;6.32;2.17;;;;;;;14.07;35.58;100197.28;5025204;28;100150;-86
2021/03/12 11:27:48;;;;;;;;;;;;;;;13.93;35.14;100206.91;5027451;28;96963;-84
2021/03/12 11:30:18;;;;;;;6.47;2.15;;;;;;;13.76;35.91;100195.56;5025784;28;96914;-86
2021/03/12 11:32:46;;;;;;;9.77;2.55;;;;;;;14.07;35.00;100190.16;5028076;28;99432;-85
2021/03/12 11:35:13;;;;;;;7.20;2.03;;;;;;;13.50;35.73;100192.56;5030218;28;97548;-84
2021/03/12 11:37:40;;;;;;;19.30;6.13;;;;;;;13.87;35.63;100199.28;5030420;28;97527;-84
2021/03/12 11:40:08;;;;;;;10.02;2.28;;;;;;;13.75;35.36;100196.47;5033419;27;96813;-82
2021/03/12 11:42:37;;;;;;;10.15;2.30;;;;;;;13.33;35.90;100205.03;5032029;28;99458;-83
2021/03/12 11:45:05;;;;;;;8.95;2.53;;;;;;;13.44;36.34;100197.38;5032657;28;99186;-83
2021/03/12 11:47:34;;;;;;;6.07;2.50;;;;;;;13.18;36.88;100200.59;5028879;27;97398;-84
2021/03/12 11:50:02;;;;;;;8.73;2.30;;;;;;;13.68;36.08;100211.91;5028852;28;96845;-87
2021/03/12 11:55:12;;;;;;;5.68;2.70;;;;;;;13.95;35.63;100197.06;5009575;28;99798;-88
2021/03/12 11:57:44;;;;;;;7.35;2.83;;;;;;;13.27;36.36;100195.63;5020175;28;97328;-87
2021/03/12 12:00:15;;;;;;;5.60;2.72;;;;;;;13.56;36.35;100196.69;5021011;28;97264;-86
2021/03/12 12:02:42;;;;;;;8.88;3.25;;;;;;;14.03;35.62;100199.28;5025425;28;99363;-88
2021/03/12 12:05:10;;;;;;;7.40;2.95;;;;;;;13.51;35.13;100193.44;5028632;28;98382;-88
2021/03/12 12:07:37;;;;;;;6.55;2.90;;;;;;;13.15;36.14;100201.63;5028839;28;97375;-87
2021/03/12 12:10:05;;;;;;;5.60;2.97;;;;;;;13.15;36.47;100202.47;5031823;28;97430;-88
2021/03/12 12:15:18;;;;;;;6.53;3.25;;;;;;;13.34;35.92;100206.75;5023191;28;97679;-86
2021/03/12 12:17:45;;;;;;;14.98;3.15;;;;;;;12.99;36.17;100190.13;5032811;27;97081;-84
2021/03/12 12:20:13;;;;;;;8.77;3.08;;;;;;;12.82;36.42;100196.31;5024642;28;96969;-86
2021/03/12 12:22:40;;;;;;;8.85;3.13;;;;;;;13.51;35.92;100190.78;5016659;28;101230;-86
2021/03/12 12:25:07;;;;;;;4.50;2.78;;;;;;;13.71;35.52;100190.50;5020437;28;98190;-86
2021/03/12 12:27:43;;;;;;;7.95;2.95;;;;;;;13.64;35.51;100182.97;5027321;28;96709;-87
2021/03/12 12:35:34;;;;;;;6.57;2.03;;;;;;;13.11;34.98;100190.31;5031972;28;99606;-87
2021/03/12 12:38:05;;;;;;;7.30;2.30;;;;;;;13.68;34.04;100193.31;5023724;28;96644;-85
2021/03/12 12:40:31;;;;;;;8.05;2.55;;;;;;;13.30;34.53;100184.00;5030534;28;96666;-87
2021/03/12 12:43:00;;;;;;;11.98;2.35;;;;;;;13.42;34.48;100183.31;5030312;28;96612;-87
2021/03/12 12:45:29;;;;;;;12.90;2.35;;;;;;;14.03;33.83;100180.69;5028571;28;99035;-85
2021/03/12 12:47:55;;;;;;;6.88;2.53;;;;;;;14.00;33.42;100169.34;5023890;28;96859;-86
2021/03/12 12:50:23;;;;;;;;;;;;;;;13.84;33.47;100167.63;5034516;28;96620;-83
2021/03/12 12:52:49;;;;;;;7.40;2.13;;;;;;;13.90;33.44;100161.09;5027639;28;98246;-83
2021/03/12 12:55:15;;;;;;;;;;;;;;;14.13;32.85;100162.38;5030599;28;98135;-84
2021/03/12 12:57:43;;;;;;;5.90;2.35;;;;;;;13.59;33.24;100164.63;5033944;28;97469;-84
2021/03/12 13:00:21;;;;;;;7.10;1.75;;;;;;;13.68;32.69;100168.56;5035449;27;97841;-87
2021/03/12 13:02:47;;;;;;;7.05;2.70;;;;;;;14.21;32.20;100161.00;5027386;28;97174;-84
2021/03/12 13:05:13;;;;;;;;;;;;;;;13.79;32.30;100159.03;5031439;28;99156;-85
2021/03/12 13:10:23;;;;;;;6.63;2.17;;;;;;;13.42;32.74;100162.09;5031394;28;96820;-84
2021/03/12 13:12:50;;;;;;;4.68;2.05;;;;;;;13.76;32.69;100145.09;5028341;28;101404;-86
2021/03/12 13:15:18;;;;;;;5.30;2.03;;;;;;;13.83;31.76;100151.75;5024402;28;99467;-84